createdAt,value
2022-08-05T00:00:27.161Z,15.30
2022-08-05T00:02:58.223Z,15.13
2022-08-05T00:06:06.403Z,14.55
2022-08-05T00:08:30.848Z,13.55
2022-08-05T00:11:20.709Z,13.98
2022-08-05T00:13:57.359Z,13.50
2022-08-05T00:16:35.376Z,12.95
2022-08-05T00:19:07.330Z,13.98
2022-08-05T00:21:37.007Z,12.48
2022-08-05T00:24:10.381Z,12.05
2022-08-05T00:26:46.687Z,12.75
2022-08-05T00:29:22.845Z,12.30
2022-08-05T00:32:13.142Z,12.75
2022-08-05T00:35:04.312Z,11.45
2022-08-05T00:37:50.944Z,10.27
2022-08-05T00:40:26.614Z,12.60
2022-08-05T00:43:01.753Z,10.82
2022-08-05T00:45:42.783Z,10.38
2022-08-05T00:48:31.325Z,10.68
2022-08-05T00:51:01.251Z,10.52
2022-08-05T00:53:45.320Z,11.25
2022-08-05T00:56:28.318Z,10.27
2022-08-05T00:59:00.536Z,9.75
2022-08-05T01:01:48.405Z,11.05
2022-08-05T01:04:20.302Z,10.95
2022-08-05T01:06:56.669Z,9.50
2022-08-05T01:09:26.297Z,9.63
2022-08-05T01:12:09.272Z,9.55
2022-08-05T01:14:54.755Z,10.30
2022-08-05T01:18:02.728Z,10.85
2022-08-05T01:21:01.507Z,9.37
2022-08-05T01:23:47.175Z,9.10
2022-08-05T01:26:29.016Z,9.43
2022-08-05T01:29:00.602Z,8.70
2022-08-05T01:31:44.699Z,9.27
2022-08-05T01:34:15.011Z,10.98
2022-08-05T01:36:52.390Z,10.82
2022-08-05T01:39:45.738Z,9.77
2022-08-05T01:42:12.029Z,9.07
2022-08-05T01:44:43.491Z,9.13
2022-08-05T01:47:15.326Z,10.40
2022-08-05T01:50:00.529Z,9.60
2022-08-05T01:52:32.465Z,10.60
2022-08-05T01:55:02.546Z,11.35
2022-08-05T01:58:12.867Z,10.50
2022-08-05T02:00:30.097Z,10.63
2022-08-05T02:03:24.177Z,10.70
2022-08-05T02:06:03.736Z,10.75
2022-08-05T02:08:55.201Z,11.45
2022-08-05T02:11:32.781Z,11.25
2022-08-05T02:14:31.886Z,11.02
2022-08-05T02:17:05.136Z,10.88
2022-08-05T02:19:46.900Z,10.73
2022-08-05T02:22:26.462Z,11.55
2022-08-05T02:25:00.226Z,12.75
2022-08-05T02:27:57.699Z,11.55
2022-08-05T02:30:19.486Z,12.45
2022-08-05T02:32:50.021Z,12.32
2022-08-05T02:35:28.145Z,11.93
2022-08-05T02:38:03.470Z,11.95
2022-08-05T02:40:33.160Z,12.13
2022-08-05T02:43:03.291Z,12.38
2022-08-05T02:45:52.046Z,12.40
2022-08-05T02:48:29.226Z,13.73
2022-08-05T02:51:05.523Z,13.02
2022-08-05T02:53:35.958Z,12.60
2022-08-05T02:56:09.767Z,14.40
2022-08-05T02:58:51.548Z,13.73
2022-08-05T03:01:28.528Z,12.25
2022-08-05T03:04:02.906Z,12.52
2022-08-05T03:06:54.362Z,12.55
2022-08-05T03:09:38.465Z,11.85
2022-08-05T03:12:37.553Z,11.90
2022-08-05T03:15:09.167Z,12.05
2022-08-05T03:17:41.568Z,14.23
2022-08-05T03:20:11.958Z,12.73
2022-08-05T03:22:44.052Z,12.93
2022-08-05T03:25:31.912Z,13.50
2022-08-05T03:28:06.533Z,11.68
2022-08-05T03:30:38.295Z,12.43
2022-08-05T03:33:10.765Z,12.32
2022-08-05T03:35:41.164Z,12.95
2022-08-05T03:38:14.765Z,12.52
2022-08-05T03:40:48.790Z,13.40
2022-08-05T03:44:09.663Z,13.85
2022-08-05T03:46:08.597Z,12.38
2022-08-05T03:48:38.644Z,14.40
2022-08-05T03:52:37.936Z,14.85
2022-08-05T03:55:52.021Z,15.00
2022-08-05T03:56:58.916Z,14.48
2022-08-05T03:59:47.692Z,15.00
2022-08-05T04:02:38.666Z,15.75
2022-08-05T04:05:15.098Z,15.40
2022-08-05T04:07:58.241Z,16.17
2022-08-05T04:10:33.347Z,15.70
2022-08-05T04:13:08.968Z,15.40
2022-08-05T04:15:38.621Z,17.10
2022-08-05T04:18:25.531Z,15.80
2022-08-05T04:20:59.110Z,15.50
2022-08-05T04:24:05.546Z,15.68
2022-08-05T04:26:19.674Z,16.63
2022-08-05T04:28:51.235Z,16.15
2022-08-05T04:31:22.160Z,16.30
2022-08-05T04:34:31.307Z,16.35
2022-08-05T04:36:50.058Z,16.40
2022-08-05T04:39:20.731Z,15.35
2022-08-05T04:41:51.380Z,16.02
2022-08-05T04:44:29.543Z,15.93
2022-08-05T04:47:09.923Z,16.35
2022-08-05T04:50:02.917Z,16.70
2022-08-05T04:52:33.437Z,17.33
2022-08-05T04:55:14.027Z,16.38
2022-08-05T04:57:47.804Z,15.93
2022-08-05T05:00:23.626Z,17.02
2022-08-05T05:02:53.921Z,17.55
2022-08-05T05:05:28.856Z,15.80
2022-08-05T05:08:01.517Z,16.77
2022-08-05T05:10:33.518Z,16.08
2022-08-05T05:13:04.593Z,16.80
2022-08-05T05:15:57.832Z,16.13
2022-08-05T05:18:31.075Z,16.23
2022-08-05T05:21:04.250Z,13.90
2022-08-05T05:24:01.832Z,14.25
2022-08-05T05:26:28.644Z,15.02
2022-08-05T05:29:10.104Z,14.90
2022-08-05T05:31:46.436Z,18.40
2022-08-05T05:34:18.135Z,16.30
2022-08-05T05:36:53.691Z,15.10
2022-08-05T05:39:23.494Z,17.13
2022-08-05T05:41:54.109Z,15.02
2022-08-05T05:44:36.419Z,15.15
2022-08-05T05:47:13.288Z,15.18
2022-08-05T05:49:56.507Z,14.15
2022-08-05T05:52:34.664Z,15.38
2022-08-05T05:55:13.370Z,14.02
2022-08-05T05:57:52.563Z,14.60
2022-08-05T06:00:31.406Z,14.13
2022-08-05T06:03:01.598Z,14.90
2022-08-05T06:05:31.893Z,14.30
2022-08-05T06:08:02.162Z,13.30
2022-08-05T06:10:37.423Z,13.23
2022-08-05T06:13:19.226Z,12.75
2022-08-05T06:16:31.067Z,11.55
2022-08-05T06:18:41.578Z,11.70
2022-08-05T06:21:18.476Z,11.40
2022-08-05T06:23:49.886Z,11.60
2022-08-05T06:26:23.910Z,12.10
2022-08-05T06:28:54.788Z,10.88
2022-08-05T06:31:30.515Z,10.75
2022-08-05T06:34:08.062Z,11.10
2022-08-05T06:36:57.348Z,12.38
2022-08-05T06:39:28.881Z,10.68
2022-08-05T06:42:04.007Z,10.88
2022-08-05T06:44:34.030Z,11.10
2022-08-05T06:47:03.683Z,11.88
2022-08-05T06:50:01.932Z,11.75
2022-08-05T06:52:36.977Z,10.82
2022-08-05T06:55:08.456Z,11.27
2022-08-05T06:58:02.784Z,12.27
2022-08-05T07:00:27.939Z,13.52
2022-08-05T07:02:59.420Z,13.55
2022-08-05T07:05:37.751Z,14.27
2022-08-05T07:08:11.194Z,13.60
2022-08-05T07:10:52.373Z,13.60
2022-08-05T07:13:58.068Z,14.02
2022-08-05T07:18:08.749Z,14.63
2022-08-05T07:22:33.518Z,15.00
2022-08-05T07:25:23.553Z,15.40
2022-08-05T07:27:57.421Z,16.73
2022-08-05T07:30:39.066Z,15.05
2022-08-05T07:33:16.075Z,14.38
2022-08-05T07:36:01.695Z,16.50
2022-08-05T07:38:43.748Z,13.23
2022-08-05T07:41:34.994Z,17.20
2022-08-05T07:44:04.885Z,16.48
2022-08-05T07:46:34.536Z,16.73
2022-08-05T07:49:06.220Z,16.90
2022-08-05T07:51:48.583Z,16.23
2022-08-05T07:54:30.670Z,18.65
2022-08-05T07:57:22.410Z,23.40
2022-08-05T07:59:55.807Z,21.27
2022-08-05T08:02:31.134Z,19.15
2022-08-05T08:05:18.836Z,19.50
2022-08-05T08:07:59.036Z,19.05
2022-08-05T08:10:30.613Z,18.80
2022-08-05T08:13:01.586Z,18.83
2022-08-05T08:16:35.841Z,19.75
2022-08-05T08:18:21.281Z,19.48
2022-08-05T08:21:02.449Z,19.17
2022-08-05T08:24:01.605Z,19.10
2022-08-05T08:26:26.858Z,19.50
2022-08-05T08:29:22.266Z,20.08
2022-08-05T08:31:53.496Z,20.00
2022-08-05T08:34:30.854Z,19.23
2022-08-05T08:37:05.240Z,19.63
2022-08-05T08:39:37.526Z,19.73
2022-08-05T08:42:22.485Z,20.02
2022-08-05T08:45:23.973Z,20.45
2022-08-05T08:48:10.568Z,20.23
2022-08-05T08:51:03.847Z,21.48
2022-08-05T08:53:27.169Z,20.83
2022-08-05T08:56:03.626Z,23.60
2022-08-05T08:58:43.896Z,22.75
2022-08-05T09:01:18.281Z,22.27
2022-08-05T09:03:55.222Z,23.08
2022-08-05T09:08:58.481Z,78.55
2022-08-05T09:11:51.393Z,25.27
2022-08-05T09:14:59.127Z,20.33
2022-08-05T09:17:09.800Z,19.40
2022-08-05T09:20:02.568Z,18.83
2022-08-05T09:22:55.041Z,17.90
2022-08-05T09:26:02.121Z,17.20
2022-08-05T09:28:31.684Z,15.38
2022-08-05T09:31:43.353Z,15.35
2022-08-05T09:34:03.070Z,14.65
2022-08-05T09:36:54.527Z,13.90
2022-08-05T09:39:41.215Z,13.82
2022-08-05T09:42:23.670Z,15.27
2022-08-05T09:45:03.382Z,12.60
2022-08-05T09:47:56.549Z,12.48
2022-08-05T09:50:43.803Z,11.98
2022-08-05T09:53:26.175Z,11.90
2022-08-05T09:56:12.829Z,11.48
2022-08-05T09:58:43.263Z,10.73
2022-08-05T10:01:22.467Z,10.40
2022-08-05T10:04:10.084Z,10.70
2022-08-05T10:09:28.018Z,9.27
2022-08-05T10:11:58.376Z,8.60
2022-08-05T10:14:30.317Z,9.00
2022-08-05T10:17:37.208Z,8.48
2022-08-05T10:20:11.001Z,7.97
2022-08-05T10:22:43.030Z,7.53
2022-08-05T10:25:21.345Z,6.65
2022-08-05T10:28:13.250Z,7.43
2022-08-05T10:32:48.312Z,20.40
2022-08-05T10:33:35.203Z,6.53
2022-08-05T10:36:05.963Z,6.75
2022-08-05T10:38:36.332Z,6.60
2022-08-05T10:41:06.165Z,6.88
2022-08-05T10:43:38.027Z,6.63
2022-08-05T10:46:09.171Z,6.72
2022-08-05T10:48:52.782Z,6.82
2022-08-05T10:51:28.935Z,6.68
2022-08-05T10:54:00.824Z,7.43
2022-08-05T10:56:32.310Z,8.18
2022-08-05T10:59:07.210Z,8.57
2022-08-05T11:01:55.453Z,7.88
2022-08-05T11:04:36.556Z,8.38
2022-08-05T11:07:13.351Z,8.85
2022-08-05T11:09:47.040Z,10.18
2022-08-05T11:12:29.321Z,9.77
2022-08-05T11:15:19.573Z,10.60
2022-08-05T11:18:39.716Z,11.13
2022-08-05T11:21:49.751Z,11.30
2022-08-05T11:24:29.797Z,11.13
2022-08-05T11:27:51.404Z,10.35
2022-08-05T11:30:21.885Z,8.88
2022-08-05T11:33:03.987Z,8.68
2022-08-05T11:36:07.842Z,6.28
2022-08-05T11:38:45.915Z,6.05
2022-08-05T11:41:54.708Z,6.07
2022-08-05T11:44:40.541Z,8.15
2022-08-05T11:47:12.168Z,4.63
2022-08-05T11:49:49.609Z,4.28
2022-08-05T11:52:31.164Z,3.50
2022-08-05T11:55:07.417Z,3.15
2022-08-05T11:57:39.556Z,2.72
2022-08-05T12:00:31.264Z,2.28
2022-08-05T12:03:01.126Z,2.45
2022-08-05T12:05:36.542Z,2.67
2022-08-05T12:08:17.950Z,2.50
2022-08-05T12:10:48.803Z,2.63
2022-08-05T12:13:47.739Z,2.90
2022-08-05T12:16:14.634Z,2.30
2022-08-05T12:18:49.114Z,1.98
2022-08-05T12:21:29.969Z,1.83
2022-08-05T12:24:07.680Z,2.53
2022-08-05T12:26:38.560Z,2.72
2022-08-05T12:29:09.888Z,2.03
2022-08-05T12:31:53.570Z,1.80
2022-08-05T12:34:35.783Z,1.73
2022-08-05T12:37:21.453Z,1.45
2022-08-05T12:40:03.025Z,1.60
2022-08-05T12:42:33.854Z,1.30
2022-08-05T12:45:10.286Z,1.15
2022-08-05T12:47:43.289Z,1.27
2022-08-05T12:50:31.059Z,1.50
2022-08-05T12:53:01.656Z,1.88
2022-08-05T12:55:35.281Z,2.10
2022-08-05T12:58:51.533Z,3.83
2022-08-05T13:02:03.768Z,1.30
2022-08-05T13:03:48.807Z,1.48
2022-08-05T13:06:21.806Z,1.55
2022-08-05T13:08:52.976Z,1.45
2022-08-05T13:12:01.179Z,1.20
2022-08-05T13:14:15.611Z,2.03
2022-08-05T13:17:13.227Z,2.35
2022-08-05T13:19:52.490Z,2.63
2022-08-05T13:22:29.366Z,2.65
2022-08-05T13:25:05.686Z,2.53
2022-08-05T13:27:42.573Z,2.75
2022-08-05T13:30:34.712Z,2.83
2022-08-05T13:33:03.773Z,3.30
2022-08-05T13:35:47.497Z,3.10
2022-08-05T13:38:30.344Z,3.47
2022-08-05T13:41:04.425Z,4.20
2022-08-05T13:43:45.131Z,2.90
2022-08-05T13:46:50.916Z,2.88
2022-08-05T13:49:19.054Z,4.32
2022-08-05T13:51:50.100Z,3.28
2022-08-05T13:54:25.108Z,3.28
2022-08-05T13:56:55.532Z,3.65
2022-08-05T13:59:27.001Z,3.67
2022-08-05T14:02:00.489Z,3.33
2022-08-05T14:04:52.960Z,3.20
2022-08-05T14:07:26.362Z,3.28
2022-08-05T14:10:18.371Z,5.72
2022-08-05T14:12:50.267Z,4.20
2022-08-05T14:16:07.798Z,3.80
2022-08-05T14:18:18.364Z,4.55
2022-08-05T14:20:54.565Z,3.67
2022-08-05T14:23:28.779Z,3.53
2022-08-05T14:26:06.868Z,3.83
2022-08-05T14:28:37.315Z,3.00
2022-08-05T14:32:02.580Z,3.28
2022-08-05T14:34:12.951Z,3.80
2022-08-05T14:36:44.089Z,3.88
2022-08-05T14:39:23.110Z,4.30
2022-08-05T14:42:15.974Z,4.53
2022-08-05T14:44:47.567Z,4.13
2022-08-05T14:48:02.513Z,4.63
2022-08-05T14:50:14.238Z,4.32
2022-08-05T14:52:56.855Z,4.13
2022-08-05T14:55:39.070Z,4.50
2022-08-05T14:58:14.111Z,4.55
2022-08-05T15:00:57.895Z,4.38
2022-08-05T15:03:38.879Z,5.28
2022-08-05T15:08:59.578Z,5.07
2022-08-05T15:11:51.136Z,5.72
2022-08-05T15:14:35.083Z,4.68
2022-08-05T15:17:44.959Z,5.20
2022-08-05T15:20:01.685Z,4.47
2022-08-05T15:22:31.433Z,5.05
2022-08-05T15:25:13.727Z,4.78
2022-08-05T15:27:51.916Z,4.13
2022-08-05T15:30:22.218Z,4.43
2022-08-05T15:32:52.342Z,4.28
2022-08-05T15:35:22.051Z,4.63
2022-08-05T15:38:33.185Z,3.80
2022-08-05T15:41:20.717Z,4.75
2022-08-05T15:43:31.238Z,4.40
2022-08-05T15:46:15.883Z,4.07
2022-08-05T15:48:52.739Z,4.85
2022-08-05T15:52:04.102Z,5.32
2022-08-05T15:54:18.702Z,4.45
2022-08-05T15:56:48.942Z,5.72
2022-08-05T15:59:21.954Z,5.45
2022-08-05T16:01:53.704Z,5.93
2022-08-05T16:04:26.551Z,6.10
2022-08-05T16:06:59.142Z,10.60
2022-08-05T16:09:29.290Z,8.52
2022-08-05T16:12:02.140Z,6.53
2022-08-05T16:14:32.905Z,6.63
2022-08-05T16:17:02.692Z,6.78
2022-08-05T16:20:04.289Z,7.18
2022-08-05T16:22:24.190Z,6.35
2022-08-05T16:24:57.590Z,6.80
2022-08-05T16:27:32.159Z,7.03
2022-08-05T16:30:25.814Z,6.45
2022-08-05T16:32:56.934Z,6.83
2022-08-05T16:35:28.243Z,6.60
2022-08-05T16:38:18.752Z,6.93
2022-08-05T16:40:55.730Z,6.65
2022-08-05T16:43:33.780Z,6.85
2022-08-05T16:46:23.783Z,5.80
2022-08-05T16:48:55.549Z,7.03
2022-08-05T16:51:30.830Z,7.38
2022-08-05T16:54:17.099Z,7.00
2022-08-05T16:56:52.234Z,6.45
2022-08-05T16:59:22.304Z,6.68
2022-08-05T17:01:52.886Z,7.13
2022-08-05T17:04:26.436Z,8.60
2022-08-05T17:07:00.038Z,9.23
2022-08-05T17:09:55.956Z,10.25
2022-08-05T17:12:22.490Z,9.52
2022-08-05T17:14:52.618Z,6.78
2022-08-05T17:17:22.514Z,7.15
2022-08-05T17:19:55.573Z,6.25
2022-08-05T17:22:26.362Z,5.95
2022-08-05T17:24:58.010Z,5.68
2022-08-05T17:27:33.719Z,6.10
2022-08-05T17:30:04.747Z,5.53
2022-08-05T17:32:42.369Z,4.85
2022-08-05T17:35:15.683Z,5.53
2022-08-05T17:37:50.699Z,4.50
2022-08-05T17:40:22.527Z,5.47
2022-08-05T17:42:53.648Z,5.70
2022-08-05T17:45:24.106Z,5.43
2022-08-05T17:47:55.867Z,4.43
2022-08-05T17:50:28.116Z,5.18
2022-08-05T17:53:00.559Z,4.43
2022-08-05T17:55:37.498Z,5.68
2022-08-05T17:58:11.161Z,5.30
2022-08-05T18:00:45.417Z,4.78
2022-08-05T18:03:48.434Z,4.55
2022-08-05T18:06:12.075Z,4.90
2022-08-05T18:08:46.158Z,4.85
2022-08-05T18:11:23.317Z,5.22
2022-08-05T18:13:56.268Z,5.55
2022-08-05T18:16:25.934Z,5.07
2022-08-05T18:18:55.539Z,4.70
2022-08-05T18:22:07.395Z,4.85
2022-08-05T18:24:16.661Z,5.95
2022-08-05T18:26:46.410Z,4.90
2022-08-05T18:29:17.728Z,4.97
2022-08-05T18:32:07.565Z,5.30
2022-08-05T18:34:43.419Z,5.32
2022-08-05T18:37:33.514Z,5.53
2022-08-05T18:40:34.269Z,5.55
2022-08-05T18:42:52.452Z,5.25
2022-08-05T18:45:22.205Z,6.03
2022-08-05T18:47:56.722Z,5.63
2022-08-05T18:50:46.936Z,5.57
2022-08-05T18:53:20.541Z,5.40
2022-08-05T18:55:54.239Z,6.93
2022-08-05T18:58:28.903Z,5.20
2022-08-05T19:00:59.239Z,5.40
2022-08-05T19:03:55.542Z,5.55
2022-08-05T19:06:22.090Z,5.13
2022-08-05T19:09:04.153Z,4.32
2022-08-05T19:11:37.219Z,4.93
2022-08-05T19:14:37.835Z,4.25
2022-08-05T19:17:14.135Z,4.75
2022-08-05T19:19:48.692Z,4.78
2022-08-05T19:22:18.574Z,4.30
2022-08-05T19:24:54.601Z,3.47
2022-08-05T19:27:30.491Z,4.35
2022-08-05T19:30:00.570Z,3.47
2022-08-05T19:32:32.622Z,2.50
2022-08-05T19:35:06.573Z,3.20
2022-08-05T19:38:04.499Z,4.13
2022-08-05T19:40:26.624Z,3.55
2022-08-05T19:43:04.927Z,2.10
2022-08-05T19:45:38.651Z,1.95
2022-08-05T19:48:24.189Z,2.03
2022-08-05T19:50:55.395Z,2.75
2022-08-05T19:54:04.588Z,2.63
2022-08-05T19:56:20.856Z,2.08
2022-08-05T19:58:59.494Z,2.60
2022-08-05T20:01:49.102Z,2.40
2022-08-05T20:04:18.836Z,2.45
2022-08-05T20:06:50.078Z,1.75
2022-08-05T20:09:19.873Z,2.00
2022-08-05T20:11:49.587Z,1.98
2022-08-05T20:14:26.710Z,1.73
2022-08-05T20:16:58.268Z,1.95
2022-08-05T20:19:35.955Z,1.58
2022-08-05T20:22:06.383Z,1.65
2022-08-05T20:24:39.535Z,1.45
2022-08-05T20:27:11.327Z,1.83
2022-08-05T20:29:41.403Z,1.50
2022-08-05T20:32:22.071Z,1.63
2022-08-05T20:34:51.829Z,1.85
2022-08-05T20:38:04.732Z,1.67
2022-08-05T20:40:11.493Z,2.05
2022-08-05T20:42:41.186Z,1.52
2022-08-05T20:45:13.438Z,1.38
2022-08-05T20:47:43.073Z,2.10
2022-08-05T20:50:13.386Z,2.15
2022-08-05T20:52:45.132Z,2.22
2022-08-05T20:55:56.756Z,1.30
2022-08-05T20:58:06.481Z,1.75
2022-08-05T21:00:44.434Z,3.08
2022-08-05T21:03:24.083Z,1.73
2022-08-05T21:05:55.614Z,2.08
2022-08-05T21:08:42.050Z,2.08
2022-08-05T21:12:00.726Z,2.03
2022-08-05T21:14:03.871Z,2.40
2022-08-05T21:16:35.401Z,2.65
2022-08-05T21:19:05.648Z,2.22
2022-08-05T21:21:44.158Z,2.10
2022-08-05T21:24:20.149Z,2.55
2022-08-05T21:26:58.374Z,2.50
2022-08-05T21:29:31.499Z,2.10
2022-08-05T21:32:02.743Z,2.33
2022-08-05T21:34:32.904Z,2.95
2022-08-05T21:37:03.098Z,3.03
2022-08-05T21:39:34.479Z,2.45
2022-08-05T21:42:04.608Z,2.42
2022-08-05T21:44:34.377Z,2.60
2022-08-05T21:47:04.505Z,2.35
2022-08-05T21:49:58.835Z,2.30
2022-08-05T21:52:31.409Z,2.67
2022-08-05T21:55:07.069Z,2.33
2022-08-05T21:57:42.692Z,2.53
2022-08-05T22:00:13.181Z,2.35
2022-08-05T22:02:44.366Z,3.70
2022-08-05T22:05:15.684Z,2.50
2022-08-05T22:07:58.957Z,3.88
2022-08-05T22:10:31.740Z,2.95
2022-08-05T22:13:08.676Z,3.03
2022-08-05T22:16:02.461Z,4.50
2022-08-05T22:21:18.717Z,3.35
2022-08-05T22:24:13.251Z,3.33
2022-08-05T22:27:20.041Z,5.90
2022-08-05T22:29:49.702Z,4.73
2022-08-05T22:32:24.254Z,4.22
2022-08-05T22:34:53.950Z,7.78
2022-08-05T22:37:26.569Z,4.20
2022-08-05T22:40:16.546Z,4.28
2022-08-05T22:42:53.238Z,5.15
2022-08-05T22:45:30.869Z,8.50
2022-08-05T22:48:00.681Z,6.65
2022-08-05T22:50:30.694Z,6.20
2022-08-05T22:53:00.367Z,5.72
2022-08-05T22:55:37.075Z,6.63
2022-08-05T22:58:28.242Z,5.10
2022-08-05T23:00:58.505Z,5.00
2022-08-05T23:03:58.156Z,5.20
2022-08-05T23:06:18.941Z,4.70
2022-08-05T23:08:52.110Z,5.15
2022-08-05T23:11:21.993Z,4.28
2022-08-05T23:13:51.893Z,4.97
2022-08-05T23:16:43.986Z,4.40
2022-08-05T23:19:14.600Z,4.35
2022-08-05T23:21:55.803Z,4.60
2022-08-05T23:24:25.599Z,3.78
2022-08-05T23:26:55.477Z,4.00
2022-08-05T23:29:25.156Z,4.15
2022-08-05T23:31:56.200Z,3.97
2022-08-05T23:34:26.088Z,4.03
2022-08-05T23:36:55.623Z,4.15
2022-08-05T23:39:44.634Z,4.03
2022-08-05T23:42:14.915Z,4.53
2022-08-05T23:44:54.545Z,4.60
2022-08-05T23:47:25.137Z,4.28
2022-08-05T23:49:56.315Z,3.83
2022-08-05T23:52:36.100Z,3.85
2022-08-05T23:55:20.080Z,4.22
2022-08-05T23:57:52.769Z,4.55
